Quick Links (Output Below):   Max & Min Temps   /   Climate Reports   /   Zone Forecasts
River Forecasts   /   Forestry Forecasts   /   Aviation Forecasts   /   Radars   /   Features

Terminal Aerodrome Forecast (Jonesboro)

Pick a Site:
Arkadelphia | El Dorado | Fayetteville | Fort Smith | Harrison | Highfill | Hot Springs | Jonesboro
Little Rock | Monticello | Mountain Home | Pine Bluff | Texarkana
 Forecast 

KJBR 282334Z 2900/2924 36007KT P6SM OVC015
     FM290300 36006KT P6SM OVC009
     FM290800 03005KT P6SM FEW009 BKN030
     FM291600 05006KT P6SM BKN100=


 Latest METARs (Observations) 
How to Decode METARs
02Z KJBR 290153Z AUTO 06005KT 10SM OVC017 03/00 A3021 RMK AO2 SLP230
         T00280000
         
01Z KJBR 290053Z AUTO 04004KT 10SM OVC019 03/00 A3021 RMK AO2 SLP231
         T00280000
         
***** Today's Observations (Above) *****


22Z KJBR 282153Z AUTO 03005KT 10SM OVC015 03/00 A3019 RMK AO2 SLP225
         T00280000
         
21Z KJBR 282053Z AUTO 04006KT 10SM OVC015 03/01 A3018 RMK AO2 SLP222
         T00330006 56007
         
19Z KJBR 281853Z AUTO 01004KT 10SM OVC014 03/01 A3019 RMK AO2 SLP224
         T00330006
         
18Z KJBR 281753Z AUTO 02005KT 10SM OVC014 03/01 A3020 RMK AO2 SLP229
         T00330006 10033 20022 58008
         
17Z KJBR 281653Z AUTO 02005KT 10SM OVC013 03/00 A3025 RMK AO2 SLP243
         T00280000
         
14Z KJBR 281353Z AUTO 35007KT 10SM OVC012 02/01 A3023 RMK AO2 SLP237
         T00220006
         
09Z KJBR 280853Z AUTO 34004KT 10SM OVC013 04/03 A3021 RMK AO2 SLP228
         T00390028 53010
         
08Z KJBR 280753Z AUTO 34007KT 10SM BKN011 OVC023 04/03 A3019 RMK AO2
         SLP223 T00440028
         
***** Yesterday's Observations (Above) *****


Back to Main Page
http://www.srh.noaa.gov/lzk/qfcst.php

USA.gov is the U.S. government's official web portal to all federal, state and local government web resources and services.